• Join FlightAware (Why Join?)
  • Login
  • US Flag 
05:44AM EDT


 

Airport Tracker/Info


-or-


 

Live Flight TrackerFlight Track Log ✈ PDT4314 ✈ 08-Sep-2013 ✈ KPHL - KBGM

Flight Track Log - Related Links

Times and Time Zones

All times are in EDT time to prevent confusion due to time zone crossing. See the PDT4314 flight status page for this flight to view local times or setup timezone preferences in your user account.

Time Position Orientation Groundspeed Altitude Reporting Facility
EDT Latitude Longitude Course Direction KTS MPH feet Rate Location/Type
05:45PM 39.9000 -75.2333 351° North 109 125 500  Level Philadelphia TRACON
05:46PM 39.9000 -75.2500 270° West 112 129 1,200 1,260 Climbing Philadelphia TRACON
05:47PM 39.9333 -75.2667 339° North 124 143 2,300 840 Climbing Philadelphia TRACON
05:48PM 40.0672 -75.3005 349° North  Level Estimated
05:48PM 39.9833 -75.2833 346° North 151 174 3,000  Level Philadelphia TRACON
05:49PM 40.1330 -75.3147 351° North  Level FlightAware Approximate
05:49PM 40.0167 -75.2833 360° North 186 214 3,500  Level Philadelphia TRACON
05:50PM 40.1988 -75.3289 351° North  Level FlightAware Approximate
05:50PM 40.0833 -75.2833 360° North 185 213 4,100  Level Philadelphia TRACON
05:51PM 40.2647 -75.3431 351° North  Level FlightAware Approximate
05:51PM 40.1333 -75.3000 346° North 208 239 4,100  Level Philadelphia TRACON
05:52PM 40.2000 -75.3333 339° North 214 246 4,000 -120 Descending Philadelphia TRACON
05:54PM 40.3088 -75.3551 351° North  Level FlightAware Approximate
06:01PM 40.7697 -75.4500 North  Level FlightAware Approximate
06:02PM 40.8365 -75.4500 North  Level FlightAware Approximate
06:03PM 40.9032 -75.4500 North  Level FlightAware Approximate
06:04PM 40.9699 -75.4500 North  Level FlightAware Approximate
06:05PM 41.0366 -75.4502 357° North  Level FlightAware Approximate
06:06PM 41.1033 -75.4554 357° North  Level FlightAware Approximate
06:07PM 41.1699 -75.4605 357° North  Level FlightAware Approximate
06:08PM 41.2365 -75.4656 357° North  Level FlightAware Approximate
06:09PM 41.3032 -75.4667 North  Level FlightAware Approximate
06:10PM 41.3699 -75.4667 North  Level FlightAware Approximate
06:11PM 41.4366 -75.4667 North  Level FlightAware Approximate
06:12PM 41.4961 -75.4960 323° Northwest  Level FlightAware Approximate
06:13PM 41.5495 -75.5493 323° Northwest  Level FlightAware Approximate
06:14PM 41.6030 -75.6027 323° Northwest  Level FlightAware Approximate
06:15PM 41.6564 -75.6562 323° Northwest  Level FlightAware Approximate
06:16PM 41.7098 -75.7098 323° Northwest  Level FlightAware Approximate
06:17PM 41.7646 -75.7608 326° Northwest  Level FlightAware Approximate
06:18PM 41.8196 -75.8115 326° Northwest  Level FlightAware Approximate
06:19PM 41.8746 -75.8623 325° Northwest  Level FlightAware Approximate
06:20PM 41.9295 -75.9131 325° Northwest  Level FlightAware Approximate
06:21PM 41.9832 -75.9665 323° Northwest  Level FlightAware Approximate
06:22PM 42.0368 -76.0200 323° Northwest  Level FlightAware Approximate
06:23PM 42.0903 -76.0736 323° Northwest  Level FlightAware Approximate
06:24PM 42.1439 -76.1272 323° Northwest  Level FlightAware Approximate
06:25PM 42.1732 -76.0671 62° Northeast  Level FlightAware Approximate
06:26PM 42.2000 -75.9862 90° East  Level FlightAware Approximate
06:27PM 42.2000 -75.9667 90° East  Level FlightAware Approximate
06:28PM 42.2084 -75.9796 90° East  Level Estimated
06:29PM 42.2084 -75.9796 90° East  Level Estimated
06:30PM 42.2084 -75.9796 90° East  Level Estimated
06:31PM 42.2084 -75.9796 90° East  Level Estimated